Pescal — CUSF — position and weather

sailwx.info

Track history (hours):
 
Tides and Currents Weather Stations Pressure Air Temp Water Temp Dewpoint Dewpoint Depression Visibility Wind Speed Wind Dir Waves Ship Positions

Pescal

Last reported at 2018-Jul-21 17:51 UTC. Time now 2018-Jul-22 04:24 UTC.
Position N 37°43' W 009°11'.

Length 23 m.

MMSI: 263514000.

Date/timePositionNaut miles runAvg speedWind from/ knotsBaromVisibWave heightAir tempDewpointWater temp
2018-Jul-21 17:51N 37°43' W 009°11'1 2.9
2018-Jul-21 17:22N 37°44' W 009°11'3 2.9
2018-Jul-21 16:20N 37°47' W 009°11'1 3.8
2018-Jul-21 15:59N 37°48' W 009°11'2 4.5
2018-Jul-21 15:30N 37°50' W 009°11'1 1.1
2018-Jul-21 15:00N 37°51' W 009°11'1 2.0
2018-Jul-21 14:30N 37°52' W 009°11'3 2.9
2018-Jul-21 13:30N 37°55' W 009°11'1 2.8
2018-Jul-21 13:00N 37°56' W 009°11'1 2.7
2018-Jul-21 12:30N 37°57' W 009°10'1 2.6
2018-Jul-21 12:00N 37°59' W 009°10'2 3.0
2018-Jul-21 11:30N 38°00' W 009°10'1 1.0
2018-Jul-21 11:00N 38°01' W 009°10'1 1.0
2018-Jul-21 10:30N 38°00' W 009°10'1 2.6
2018-Jul-21 10:00N 37°59' W 009°11'1 2.6
2018-Jul-21 09:30N 37°58' W 009°11'1 2.5
2018-Jul-21 09:00N 37°57' W 009°12'1 2.5
2018-Jul-21 08:30N 37°55' W 009°12'1 2.3
2018-Jul-21 08:00N 37°54' W 009°12'1 2.3
2018-Jul-21 07:30N 37°53' W 009°12'1 1.9
2018-Jul-21 07:00N 37°52' W 009°12'0 0.4
2018-Jul-21 06:30N 37°52' W 009°12'1 2.4
2018-Jul-21 06:00N 37°51' W 009°11'1 2.3
2018-Jul-21 05:30N 37°50' W 009°11'1 2.1
2018-Jul-21 05:00N 37°49' W 009°11'1 2.1
2018-Jul-21 04:30N 37°48' W 009°10'1 2.1
2018-Jul-21 04:00N 37°47' W 009°09'1 2.3
2018-Jul-21 03:30N 37°46' W 009°09'1 2.3
2018-Jul-21 03:00N 37°45' W 009°09'1 3.0
2018-Jul-21 02:30N 37°43' W 009°09'1 2.3
2018-Jul-21 02:00N 37°44' W 009°11'1 1.1
2018-Jul-21 01:30N 37°43' W 009°11'1 2.5
2018-Jul-21 01:00N 37°42' W 009°11'1 2.4
2018-Jul-21 00:30N 37°41' W 009°11'1 2.4
2018-Jul-21 00:00N 37°40' W 009°11'1 2.5
2018-Jul-20 23:30N 37°38' W 009°11'1 2.5
2018-Jul-20 22:59N 37°37' W 009°11'1 2.5
2018-Jul-20 22:28N 37°36' W 009°11'1 2.5
2018-Jul-20 22:00N 37°35' W 009°11'1 2.5
2018-Jul-20 21:30N 37°33' W 009°11'1 2.4
2018-Jul-20 21:00N 37°32' W 009°10'47 2.9
2018-Jul-20 04:43N 36°50' W 008°45'1110.3
2018-Jul-20 03:36N 36°51' W 008°31'110.5
2018-Jul-20 03:29N 36°51' W 008°30'710.7
2018-Jul-20 02:48N 36°51' W 008°20'510.8
2018-Jul-20 02:21N 36°51' W 008°14'6 0.5
2018-Jul-19 13:24N 36°50' W 008°22'1 2.4
2018-Jul-19 13:00N 36°49' W 008°21'8 0.8
2018-Jul-19 02:14N 36°55' W 008°28'1 2.6
2018-Jul-19 01:59N 36°54' W 008°29'1 2.5
2018-Jul-19 01:30N 36°53' W 008°28'1 2.5
2018-Jul-19 01:00N 36°53' W 008°27'3 0.7
2018-Jul-18 21:10N 36°55' W 008°28'0 2.5
2018-Jul-18 21:00N 36°54' W 008°29'1 2.4
2018-Jul-18 20:30N 36°53' W 008°28'1 2.6
2018-Jul-18 20:00N 36°53' W 008°27'1 2.6
2018-Jul-18 19:30N 36°52' W 008°25'13 4.8
2018-Jul-18 16:50N 37°04' W 008°30'3 8.5
2018-Jul-18 16:30N 37°07' W 008°32'1 2.4
2018-Jul-18 16:00N 37°08' W 008°32'0 0.0
2018-Jul-18 15:30N 37°08' W 008°32'0 0.0
2018-Jul-18 15:00N 37°08' W 008°32'0 0.0
2018-Jul-18 14:30N 37°08' W 008°32'0 0.0
2018-Jul-18 13:30N 37°08' W 008°32'0 0.0
2018-Jul-18 13:00N 37°08' W 008°32'0 0.0
2018-Jul-18 12:30N 37°08' W 008°32'0 0.0
2018-Jul-18 12:00N 37°08' W 008°32'0 0.0
2018-Jul-18 11:30N 37°08' W 008°32'0 0.0
2018-Jul-18 10:30N 37°08' W 008°32'0 0.0
2018-Jul-18 10:00N 37°08' W 008°32'0 0.0
2018-Jul-18 09:30N 37°08' W 008°32'0 0.0
2018-Jul-18 09:00N 37°08' W 008°32'0 0.0
2018-Jul-18 08:30N 37°08' W 008°32'0 0.0
2018-Jul-18 08:00N 37°08' W 008°32'0 0.0
2018-Jul-18 07:30N 37°08' W 008°32'0 0.0
2018-Jul-18 07:00N 37°08' W 008°32'0 0.0
2018-Jul-18 06:30N 37°08' W 008°32'0 0.0
2018-Jul-18 06:00N 37°08' W 008°32'0 0.0
2018-Jul-18 05:30N 37°08' W 008°32'0 0.0
2018-Jul-18 05:00N 37°08' W 008°32'0 0.0
2018-Jul-18 04:30N 37°08' W 008°32'0 0.0
2018-Jul-18 04:00N 37°08' W 008°32'0 0.0
2018-Jul-18 03:30N 37°08' W 008°32'0 0.0
2018-Jul-18 03:00N 37°08' W 008°32'0 0.0
2018-Jul-18 02:30N 37°08' W 008°32'0 0.0
2018-Jul-18 02:00N 37°08' W 008°32'0 0.0
2018-Jul-18 01:30N 37°08' W 008°32'0 0.0
2018-Jul-18 01:00N 37°08' W 008°32'0 0.0
2018-Jul-18 00:28N 37°08' W 008°32'0 0.0
2018-Jul-18 00:00N 37°08' W 008°32'0 0.0
2018-Jul-17 23:30N 37°08' W 008°32'0 0.0
2018-Jul-17 22:59N 37°08' W 008°32'0 0.0
2018-Jul-17 22:30N 37°08' W 008°32'0 0.0
2018-Jul-17 22:00N 37°08' W 008°32'0 0.0
2018-Jul-17 21:30N 37°08' W 008°32'0 0.0
2018-Jul-17 21:00N 37°08' W 008°32'0 0.0
2018-Jul-17 20:30N 37°08' W 008°32'0 0.0
2018-Jul-17 20:00N 37°08' W 008°32'0 0.0
2018-Jul-17 19:30N 37°08' W 008°32'0 0.0
2018-Jul-17 19:00N 37°08' W 008°32'0 0.0
2018-Jul-17 18:30N 37°08' W 008°32'0 0.0
2018-Jul-17 18:00N 37°08' W 008°32'0 0.0
2018-Jul-17 17:30N 37°08' W 008°32'0 0.0
2018-Jul-17 16:58N 37°08' W 008°32'0 0.0
2018-Jul-17 16:30N 37°08' W 008°32'0 0.0
2018-Jul-17 16:00N 37°08' W 008°32'0 0.0
2018-Jul-17 15:30N 37°08' W 008°32'0 0.0
2018-Jul-17 15:00N 37°08' W 008°32'0 0.0
2018-Jul-17 14:30N 37°08' W 008°32'0 0.0
2018-Jul-17 14:00N 37°08' W 008°32'0 0.0
2018-Jul-17 13:30N 37°08' W 008°32'0 0.0
2018-Jul-17 13:00N 37°08' W 008°32'0 0.0
2018-Jul-17 12:30N 37°08' W 008°32'0 0.0
2018-Jul-17 12:00N 37°08' W 008°32'0 0.0
2018-Jul-17 11:30N 37°08' W 008°32'0 0.0
2018-Jul-17 11:00N 37°08' W 008°32'0 0.0
2018-Jul-17 10:30N 37°08' W 008°32'0 0.0
2018-Jul-17 10:00N 37°08' W 008°32'0 0.0
2018-Jul-17 09:30N 37°08' W 008°32'0 0.0
2018-Jul-17 09:00N 37°08' W 008°32'0 0.0
2018-Jul-17 08:30N 37°08' W 008°32'0 0.0
2018-Jul-17 08:00N 37°08' W 008°32'0 0.0
2018-Jul-17 07:29N 37°08' W 008°32'0 0.0
2018-Jul-17 07:00N 37°08' W 008°32'0 0.0
2018-Jul-17 06:30N 37°08' W 008°32'0 0.0
2018-Jul-17 06:00N 37°08' W 008°32'0 0.0
2018-Jul-17 05:30N 37°08' W 008°32'0 0.0
2018-Jul-17 04:58N 37°08' W 008°32'0 0.0
2018-Jul-17 04:29N 37°08' W 008°32'0 0.0
2018-Jul-17 03:55N 37°08' W 008°32'0 0.0
2018-Jul-17 03:28N 37°08' W 008°32'0 0.0
2018-Jul-17 03:00N 37°08' W 008°32'0 0.0
2018-Jul-17 02:26N 37°08' W 008°32'0 0.0
2018-Jul-17 02:00N 37°08' W 008°32'0 0.0
2018-Jul-17 01:25N 37°08' W 008°32'0 0.0
2018-Jul-17 00:53N 37°08' W 008°32'0 0.0
2018-Jul-17 00:27N 37°08' W 008°32'0 0.0
2018-Jul-16 23:30N 37°08' W 008°32'0 0.0
2018-Jul-16 23:00N 37°08' W 008°32'0 0.0
2018-Jul-16 22:30N 37°08' W 008°32'0 0.0
2018-Jul-16 22:00N 37°08' W 008°32'0 0.0
2018-Jul-16 21:29N 37°08' W 008°32'0 0.0
2018-Jul-16 20:59N 37°08' W 008°32'0 0.0
2018-Jul-16 20:29N 37°08' W 008°32'0 0.0
2018-Jul-16 20:00N 37°08' W 008°32'0 0.0
2018-Jul-16 19:28N 37°08' W 008°32'0 0.0
2018-Jul-16 19:00N 37°08' W 008°32'0 0.0
2018-Jul-16 18:30N 37°08' W 008°32'0 0.0
2018-Jul-16 18:00N 37°08' W 008°32'0 0.0
2018-Jul-16 17:30N 37°08' W 008°32'0 0.0
2018-Jul-16 17:00N 37°08' W 008°32'0 0.0
2018-Jul-16 16:30N 37°08' W 008°32'0 0.0
2018-Jul-16 16:00N 37°08' W 008°32'0 0.0
2018-Jul-16 15:30N 37°08' W 008°32'0 0.0
2018-Jul-16 15:00N 37°08' W 008°32'0 0.0
2018-Jul-16 14:30N 37°08' W 008°32'0 0.0
2018-Jul-16 14:00N 37°08' W 008°32'0 0.0
2018-Jul-16 13:29N 37°08' W 008°32'0 0.0
2018-Jul-16 13:00N 37°08' W 008°32'0 0.0
2018-Jul-16 12:30N 37°08' W 008°32'0 0.0
2018-Jul-16 12:00N 37°08' W 008°32'0 0.0
2018-Jul-16 11:30N 37°08' W 008°32'0 0.0
2018-Jul-16 10:59N 37°08' W 008°32'0 0.0
2018-Jul-16 10:31N 37°08' W 008°32'0 0.0
2018-Jul-16 10:00N 37°08' W 008°32'0 0.0
2018-Jul-16 09:30N 37°08' W 008°32'0 0.0
2018-Jul-16 09:00N 37°08' W 008°32'0 0.0
2018-Jul-16 08:30N 37°08' W 008°32'0 0.0
2018-Jul-16 08:00N 37°08' W 008°32'0 0.0
2018-Jul-16 07:30N 37°08' W 008°32'0 0.0
2018-Jul-16 07:00N 37°08' W 008°32'0 0.0
2018-Jul-16 06:30N 37°08' W 008°32'0 0.0
2018-Jul-16 05:59N 37°08' W 008°32'0 0.0
2018-Jul-16 05:30N 37°08' W 008°32'0 0.0
2018-Jul-16 05:00N 37°08' W 008°32'0 0.0
2018-Jul-16 04:30N 37°08' W 008°32'0 0.0
2018-Jul-16 04:00N 37°08' W 008°32'0 0.0
2018-Jul-16 03:30N 37°08' W 008°32'0 0.0
2018-Jul-16 03:00N 37°08' W 008°32'0 0.0
2018-Jul-16 02:30N 37°08' W 008°32'0 0.0
2018-Jul-16 02:00N 37°08' W 008°32'0 0.0
2018-Jul-16 01:30N 37°08' W 008°32'0 0.0
2018-Jul-16 01:00N 37°08' W 008°32'0 0.0
2018-Jul-16 00:30N 37°08' W 008°32'0 0.0
2018-Jul-16 00:00N 37°08' W 008°32'0 0.0
2018-Jul-15 23:30N 37°08' W 008°32'0 0.0
2018-Jul-15 22:59N 37°08' W 008°32'0 0.0
2018-Jul-15 22:30N 37°08' W 008°32'0 0.0
2018-Jul-15 22:00N 37°08' W 008°32'0 0.0
2018-Jul-15 21:30N 37°08' W 008°32'0 0.0
2018-Jul-15 21:00N 37°08' W 008°32'0 0.0
2018-Jul-15 20:30N 37°08' W 008°32'0 0.0
2018-Jul-15 20:00N 37°08' W 008°32'0 0.0
2018-Jul-15 19:29N 37°08' W 008°32'0 0.0
2018-Jul-15 19:00N 37°08' W 008°32'0 0.0
2018-Jul-15 18:30N 37°08' W 008°32'0 0.0
2018-Jul-15 18:00N 37°08' W 008°32'0 0.0
2018-Jul-15 17:30N 37°08' W 008°32'0 0.0
2018-Jul-15 17:00N 37°08' W 008°32'0 0.0
2018-Jul-15 16:29N 37°08' W 008°32'0 0.0
2018-Jul-15 16:00N 37°08' W 008°32'0 0.0
2018-Jul-15 15:30N 37°08' W 008°32'0 0.0
2018-Jul-15 15:00N 37°08' W 008°32'0 0.0
2018-Jul-15 14:30N 37°08' W 008°32'0 0.0
2018-Jul-15 14:00N 37°08' W 008°32'0 0.0
2018-Jul-15 13:30N 37°08' W 008°32'0 0.0
2018-Jul-15 13:00N 37°08' W 008°32'0 0.0
2018-Jul-15 12:30N 37°08' W 008°32'0 0.0
2018-Jul-15 12:00N 37°08' W 008°32'0 0.0
2018-Jul-15 11:30N 37°08' W 008°32'0 0.0
2018-Jul-15 11:00N 37°08' W 008°32'0 0.0
2018-Jul-15 10:30N 37°08' W 008°32'0 0.0
2018-Jul-15 10:00N 37°08' W 008°32'0 0.0
2018-Jul-15 09:30N 37°08' W 008°32'0 0.0
2018-Jul-15 09:00N 37°08' W 008°32'0 0.0
2018-Jul-15 08:30N 37°08' W 008°32'0 0.0
2018-Jul-15 08:00N 37°08' W 008°32'0 0.0
2018-Jul-15 07:29N 37°08' W 008°32'0 0.0
2018-Jul-15 07:00N 37°08' W 008°32'0 0.0
2018-Jul-15 06:30N 37°08' W 008°32'0 0.0
2018-Jul-15 06:00N 37°08' W 008°32'0 0.0
2018-Jul-15 05:30N 37°08' W 008°32'0 0.0
2018-Jul-15 05:00N 37°08' W 008°32'0 0.0
2018-Jul-15 04:30N 37°08' W 008°32'0 0.0
2018-Jul-15 04:00N 37°08' W 008°32'0 0.0
2018-Jul-15 03:30N 37°08' W 008°32'0 0.0
2018-Jul-15 03:00N 37°08' W 008°32'0 0.0
2018-Jul-15 02:30N 37°08' W 008°32'0 0.0
2018-Jul-15 02:00N 37°08' W 008°32'0 0.0
2018-Jul-15 01:30N 37°08' W 008°32'0 0.0
2018-Jul-15 01:00N 37°08' W 008°32'0 0.0
2018-Jul-15 00:30N 37°08' W 008°32'0 0.0
2018-Jul-15 00:00N 37°08' W 008°32'0 0.0
2018-Jul-14 23:30N 37°08' W 008°32'0 0.0
2018-Jul-14 23:00N 37°08' W 008°32'0 0.0
2018-Jul-14 22:30N 37°08' W 008°32'0 0.0
2018-Jul-14 22:00N 37°08' W 008°32'0 0.0
2018-Jul-14 21:30N 37°08' W 008°32'0 0.0
2018-Jul-14 21:00N 37°08' W 008°32'0 0.0
2018-Jul-14 20:30N 37°08' W 008°32'0 0.0
2018-Jul-14 20:00N 37°08' W 008°32'0 0.0
2018-Jul-14 19:30N 37°08' W 008°32'0 0.0
2018-Jul-14 19:00N 37°08' W 008°32'0 0.0
2018-Jul-14 18:30N 37°08' W 008°32'0 0.0
2018-Jul-14 18:00N 37°08' W 008°32'0 0.0
2018-Jul-14 17:30N 37°08' W 008°32'0 0.0
2018-Jul-14 17:00N 37°08' W 008°32'0 0.0
2018-Jul-14 16:30N 37°08' W 008°32'0 0.0
2018-Jul-14 16:00N 37°08' W 008°32'0 0.0
2018-Jul-14 15:30N 37°08' W 008°32'0 0.0
2018-Jul-14 15:00N 37°08' W 008°32'0 0.0
2018-Jul-14 14:30N 37°08' W 008°32'0 0.0
2018-Jul-14 13:29N 37°08' W 008°32'0 0.0
2018-Jul-14 13:00N 37°08' W 008°32'0 0.0
2018-Jul-14 12:30N 37°08' W 008°32'0 0.0
2018-Jul-14 11:59N 37°08' W 008°32'0 0.0
2018-Jul-14 11:30N 37°08' W 008°32'0 0.0
2018-Jul-14 11:00N 37°08' W 008°32'0 0.0
2018-Jul-14 10:30N 37°08' W 008°32'0 0.0
2018-Jul-14 10:00N 37°08' W 008°32'0 0.0
2018-Jul-14 09:30N 37°08' W 008°32'0 0.0
2018-Jul-14 09:00N 37°08' W 008°32'0 0.0
2018-Jul-14 08:30N 37°08' W 008°32'0 0.0
2018-Jul-14 08:00N 37°08' W 008°32'0 0.0
2018-Jul-14 07:30N 37°08' W 008°32'0 0.0
2018-Jul-14 07:00N 37°08' W 008°32'0 0.0
2018-Jul-14 06:30N 37°08' W 008°32'0 0.0
2018-Jul-14 06:00N 37°08' W 008°32'0 0.0
2018-Jul-14 05:30N 37°08' W 008°32'0 0.0
2018-Jul-14 05:00N 37°08' W 008°32'0 0.0
2018-Jul-14 04:30N 37°08' W 008°32'0 0.0
2018-Jul-14 04:00N 37°08' W 008°32'0 0.0
2018-Jul-14 03:30N 37°08' W 008°32'0 0.0
2018-Jul-14 03:00N 37°08' W 008°32'0 0.0
2018-Jul-14 02:30N 37°08' W 008°32'0 0.0
2018-Jul-14 02:00N 37°08' W 008°32'0 0.0
2018-Jul-14 01:30N 37°08' W 008°32'0 0.0
2018-Jul-14 01:00N 37°08' W 008°32'0 0.0
2018-Jul-14 00:29N 37°08' W 008°32'0 0.0
2018-Jul-14 00:00N 37°08' W 008°32'0 0.0
2018-Jul-13 23:30N 37°08' W 008°32'0 0.0
2018-Jul-13 22:59N 37°08' W 008°32'0 0.0
2018-Jul-13 22:30N 37°08' W 008°32'0 0.0
2018-Jul-13 22:00N 37°08' W 008°32'0 0.0
2018-Jul-13 21:30N 37°08' W 008°32'0 0.0
2018-Jul-13 21:00N 37°08' W 008°32'0 0.0
2018-Jul-13 20:30N 37°08' W 008°32'0 0.0
2018-Jul-13 20:00N 37°08' W 008°32'0 0.0
2018-Jul-13 19:30N 37°08' W 008°32'0 0.0
2018-Jul-13 19:00N 37°08' W 008°32'0 0.3
2018-Jul-13 18:30N 37°08' W 008°32'0 0.0
2018-Jul-13 18:00N 37°08' W 008°32'0 0.0
2018-Jul-13 17:30N 37°08' W 008°32'0 0.0
2018-Jul-13 17:00N 37°08' W 008°32'0 0.0
2018-Jul-13 16:30N 37°08' W 008°32'0 0.0
2018-Jul-13 16:00N 37°08' W 008°32'0 0.0
2018-Jul-13 15:30N 37°08' W 008°32'0 0.0
2018-Jul-13 15:00N 37°08' W 008°32'0 0.0
2018-Jul-13 14:00N 37°08' W 008°32'0 0.0
2018-Jul-13 13:30N 37°08' W 008°32'0 0.0
2018-Jul-13 13:00N 37°08' W 008°32'0 0.1
2018-Jul-13 12:30N 37°08' W 008°32'4 8.7
2018-Jul-13 12:00N 37°05' W 008°35'510.6
2018-Jul-13 11:30N 37°02' W 008°41'48 4.9
2018-Jul-13 01:42N 37°44' W 009°11'0 1.5
2018-Jul-13 01:30N 37°44' W 009°11'0 0.6
2018-Jul-13 01:00N 37°43' W 009°11'1 2.5
2018-Jul-13 00:30N 37°42' W 009°11'1 2.4
2018-Jul-13 00:00N 37°41' W 009°11'1 0.1
2018-Jul-12 14:45N 37°42' W 009°11'1 3.8
2018-Jul-12 14:30N 37°43' W 009°11'2 1.7
2018-Jul-12 13:04N 37°45' W 009°09'0 2.7
2018-Jul-12 12:58N 37°45' W 009°09'1 2.7
2018-Jul-12 12:30N 37°46' W 009°10'1 2.7
2018-Jul-12 11:58N 37°48' W 009°11'1 2.7
2018-Jul-12 11:24N 37°49' W 009°11'1 2.7
2018-Jul-12 10:58N 37°50' W 009°11'1 2.6
2018-Jul-12 10:30N 37°52' W 009°11'2 3.5
2018-Jul-12 10:00N 37°53' W 009°12'1 1.4
2018-Jul-12 09:30N 37°54' W 009°12'1 2.3
2018-Jul-12 09:00N 37°53' W 009°12'1 2.4
2018-Jul-12 08:30N 37°52' W 009°11'1 2.3
2018-Jul-12 08:00N 37°51' W 009°11'1 2.3
2018-Jul-12 07:30N 37°49' W 009°11'1 2.4
2018-Jul-12 07:00N 37°48' W 009°10'1 2.5
2018-Jul-12 06:30N 37°47' W 009°09'1 2.5
2018-Jul-12 06:00N 37°46' W 009°09'1 2.5
2018-Jul-12 05:30N 37°45' W 009°09'1 2.2
2018-Jul-12 05:00N 37°44' W 009°10'1 1.1
2018-Jul-12 04:05N 37°45' W 009°10'0 2.6
2018-Jul-12 04:00N 37°45' W 009°10'2 2.6
2018-Jul-12 03:22N 37°46' W 009°11'1 2.7
2018-Jul-12 03:00N 37°47' W 009°11'2 2.7
2018-Jul-12 02:18N 37°49' W 009°11'1 2.6
2018-Jul-12 01:54N 37°50' W 009°11'1 2.6
2018-Jul-12 01:31N 37°51' W 009°11'1 2.6
2018-Jul-12 01:00N 37°53' W 009°11'1 2.7
2018-Jul-12 00:30N 37°54' W 009°12'2 3.7
2018-Jul-12 00:00N 37°56' W 009°11'4 7.2
2018-Jul-11 23:30N 37°55' W 009°07'5 9.4
2018-Jul-11 23:01N 37°55' W 009°01'5 9.7
2018-Jul-11 22:30N 37°56' W 008°54'2 4.6
2018-Jul-11 22:00N 37°57' W 008°52'0 0.0
2018-Jul-11 21:30N 37°57' W 008°52'2 3.8
2018-Jul-11 21:00N 37°55' W 008°54'5 9.6
2018-Jul-11 20:31N 37°52' W 008°58'5 9.7
2018-Jul-11 20:00N 37°48' W 009°01'510.1
2018-Jul-11 19:30N 37°44' W 009°05'  
Track history (hours):
 
Tides and Currents Weather Stations Pressure Air Temp Water Temp Dewpoint Dewpoint Depression Visibility Wind Speed Wind Dir Waves Ship Positions

Pescal

Last reported at 2018-Jul-21 17:51 UTC. Time now 2018-Jul-22 04:24 UTC.
Position N 37°43' W 009°11'.

Length 23 m.

MMSI: 263514000.

Date/timePositionNaut miles runAvg speedWind from/ knotsBaromVisibWave heightAir tempDewpointWater temp
2018-Jul-21 17:51N 37°43' W 009°11'1 2.9
2018-Jul-21 17:22N 37°44' W 009°11'3 2.9
2018-Jul-21 16:20N 37°47' W 009°11'1 3.8
2018-Jul-21 15:59N 37°48' W 009°11'2 4.5
2018-Jul-21 15:30N 37°50' W 009°11'1 1.1
2018-Jul-21 15:00N 37°51' W 009°11'1 2.0
2018-Jul-21 14:30N 37°52' W 009°11'3 2.9
2018-Jul-21 13:30N 37°55' W 009°11'1 2.8
2018-Jul-21 13:00N 37°56' W 009°11'1 2.7
2018-Jul-21 12:30N 37°57' W 009°10'1 2.6
2018-Jul-21 12:00N 37°59' W 009°10'2 3.0
2018-Jul-21 11:30N 38°00' W 009°10'1 1.0
2018-Jul-21 11:00N 38°01' W 009°10'1 1.0
2018-Jul-21 10:30N 38°00' W 009°10'1 2.6
2018-Jul-21 10:00N 37°59' W 009°11'1 2.6
2018-Jul-21 09:30N 37°58' W 009°11'1 2.5
2018-Jul-21 09:00N 37°57' W 009°12'1 2.5
2018-Jul-21 08:30N 37°55' W 009°12'1 2.3
2018-Jul-21 08:00N 37°54' W 009°12'1 2.3
2018-Jul-21 07:30N 37°53' W 009°12'1 1.9
2018-Jul-21 07:00N 37°52' W 009°12'0 0.4
2018-Jul-21 06:30N 37°52' W 009°12'1 2.4
2018-Jul-21 06:00N 37°51' W 009°11'1 2.3
2018-Jul-21 05:30N 37°50' W 009°11'1 2.1
2018-Jul-21 05:00N 37°49' W 009°11'1 2.1
2018-Jul-21 04:30N 37°48' W 009°10'1 2.1
2018-Jul-21 04:00N 37°47' W 009°09'1 2.3
2018-Jul-21 03:30N 37°46' W 009°09'1 2.3
2018-Jul-21 03:00N 37°45' W 009°09'1 3.0
2018-Jul-21 02:30N 37°43' W 009°09'1 2.3
2018-Jul-21 02:00N 37°44' W 009°11'1 1.1
2018-Jul-21 01:30N 37°43' W 009°11'1 2.5
2018-Jul-21 01:00N 37°42' W 009°11'1 2.4
2018-Jul-21 00:30N 37°41' W 009°11'1 2.4
2018-Jul-21 00:00N 37°40' W 009°11'1 2.5
2018-Jul-20 23:30N 37°38' W 009°11'1 2.5
2018-Jul-20 22:59N 37°37' W 009°11'1 2.5
2018-Jul-20 22:28N 37°36' W 009°11'1 2.5
2018-Jul-20 22:00N 37°35' W 009°11'1 2.5
2018-Jul-20 21:30N 37°33' W 009°11'1 2.4
2018-Jul-20 21:00N 37°32' W 009°10'47 2.9
2018-Jul-20 04:43N 36°50' W 008°45'1110.3
2018-Jul-20 03:36N 36°51' W 008°31'110.5
2018-Jul-20 03:29N 36°51' W 008°30'710.7
2018-Jul-20 02:48N 36°51' W 008°20'510.8
2018-Jul-20 02:21N 36°51' W 008°14'6 0.5
2018-Jul-19 13:24N 36°50' W 008°22'1 2.4
2018-Jul-19 13:00N 36°49' W 008°21'8 0.8
2018-Jul-19 02:14N 36°55' W 008°28'1 2.6
2018-Jul-19 01:59N 36°54' W 008°29'1 2.5
2018-Jul-19 01:30N 36°53' W 008°28'1 2.5
2018-Jul-19 01:00N 36°53' W 008°27'3 0.7
2018-Jul-18 21:10N 36°55' W 008°28'0 2.5
2018-Jul-18 21:00N 36°54' W 008°29'1 2.4
2018-Jul-18 20:30N 36°53' W 008°28'1 2.6
2018-Jul-18 20:00N 36°53' W 008°27'1 2.6
2018-Jul-18 19:30N 36°52' W 008°25'13 4.8
2018-Jul-18 16:50N 37°04' W 008°30'3 8.5
2018-Jul-18 16:30N 37°07' W 008°32'1 2.4
2018-Jul-18 16:00N 37°08' W 008°32'0 0.0
2018-Jul-18 15:30N 37°08' W 008°32'0 0.0
2018-Jul-18 15:00N 37°08' W 008°32'0 0.0
2018-Jul-18 14:30N 37°08' W 008°32'0 0.0
2018-Jul-18 13:30N 37°08' W 008°32'0 0.0
2018-Jul-18 13:00N 37°08' W 008°32'0 0.0
2018-Jul-18 12:30N 37°08' W 008°32'0 0.0
2018-Jul-18 12:00N 37°08' W 008°32'0 0.0
2018-Jul-18 11:30N 37°08' W 008°32'0 0.0
2018-Jul-18 10:30N 37°08' W 008°32'0 0.0
2018-Jul-18 10:00N 37°08' W 008°32'0 0.0
2018-Jul-18 09:30N 37°08' W 008°32'0 0.0
2018-Jul-18 09:00N 37°08' W 008°32'0 0.0
2018-Jul-18 08:30N 37°08' W 008°32'0 0.0
2018-Jul-18 08:00N 37°08' W 008°32'0 0.0
2018-Jul-18 07:30N 37°08' W 008°32'0 0.0
2018-Jul-18 07:00N 37°08' W 008°32'0 0.0
2018-Jul-18 06:30N 37°08' W 008°32'0 0.0
2018-Jul-18 06:00N 37°08' W 008°32'0 0.0
2018-Jul-18 05:30N 37°08' W 008°32'0 0.0
2018-Jul-18 05:00N 37°08' W 008°32'0 0.0
2018-Jul-18 04:30N 37°08' W 008°32'0 0.0
2018-Jul-18 04:00N 37°08' W 008°32'0 0.0
2018-Jul-18 03:30N 37°08' W 008°32'0 0.0
2018-Jul-18 03:00N 37°08' W 008°32'0 0.0
2018-Jul-18 02:30N 37°08' W 008°32'0 0.0
2018-Jul-18 02:00N 37°08' W 008°32'0 0.0
2018-Jul-18 01:30N 37°08' W 008°32'0 0.0
2018-Jul-18 01:00N 37°08' W 008°32'0 0.0
2018-Jul-18 00:28N 37°08' W 008°32'0 0.0
2018-Jul-18 00:00N 37°08' W 008°32'0 0.0
2018-Jul-17 23:30N 37°08' W 008°32'0 0.0
2018-Jul-17 22:59N 37°08' W 008°32'0 0.0
2018-Jul-17 22:30N 37°08' W 008°32'0 0.0
2018-Jul-17 22:00N 37°08' W 008°32'0 0.0
2018-Jul-17 21:30N 37°08' W 008°32'0 0.0
2018-Jul-17 21:00N 37°08' W 008°32'0 0.0
2018-Jul-17 20:30N 37°08' W 008°32'0 0.0
2018-Jul-17 20:00N 37°08' W 008°32'0 0.0
2018-Jul-17 19:30N 37°08' W 008°32'0 0.0
2018-Jul-17 19:00N 37°08' W 008°32'0 0.0
2018-Jul-17 18:30N 37°08' W 008°32'0 0.0
2018-Jul-17 18:00N 37°08' W 008°32'0 0.0
2018-Jul-17 17:30N 37°08' W 008°32'0 0.0
2018-Jul-17 16:58N 37°08' W 008°32'0 0.0
2018-Jul-17 16:30N 37°08' W 008°32'0 0.0
2018-Jul-17 16:00N 37°08' W 008°32'0 0.0
2018-Jul-17 15:30N 37°08' W 008°32'0 0.0
2018-Jul-17 15:00N 37°08' W 008°32'0 0.0
2018-Jul-17 14:30N 37°08' W 008°32'0 0.0
2018-Jul-17 14:00N 37°08' W 008°32'0 0.0
2018-Jul-17 13:30N 37°08' W 008°32'0 0.0
2018-Jul-17 13:00N 37°08' W 008°32'0 0.0
2018-Jul-17 12:30N 37°08' W 008°32'0 0.0
2018-Jul-17 12:00N 37°08' W 008°32'0 0.0
2018-Jul-17 11:30N 37°08' W 008°32'0 0.0
2018-Jul-17 11:00N 37°08' W 008°32'0 0.0
2018-Jul-17 10:30N 37°08' W 008°32'0 0.0
2018-Jul-17 10:00N 37°08' W 008°32'0 0.0
2018-Jul-17 09:30N 37°08' W 008°32'0 0.0
2018-Jul-17 09:00N 37°08' W 008°32'0 0.0
2018-Jul-17 08:30N 37°08' W 008°32'0 0.0
2018-Jul-17 08:00N 37°08' W 008°32'0 0.0
2018-Jul-17 07:29N 37°08' W 008°32'0 0.0
2018-Jul-17 07:00N 37°08' W 008°32'0 0.0
2018-Jul-17 06:30N 37°08' W 008°32'0 0.0
2018-Jul-17 06:00N 37°08' W 008°32'0 0.0
2018-Jul-17 05:30N 37°08' W 008°32'0 0.0
2018-Jul-17 04:58N 37°08' W 008°32'0 0.0
2018-Jul-17 04:29N 37°08' W 008°32'0 0.0
2018-Jul-17 03:55N 37°08' W 008°32'0 0.0
2018-Jul-17 03:28N 37°08' W 008°32'0 0.0
2018-Jul-17 03:00N 37°08' W 008°32'0 0.0
2018-Jul-17 02:26N 37°08' W 008°32'0 0.0
2018-Jul-17 02:00N 37°08' W 008°32'0 0.0
2018-Jul-17 01:25N 37°08' W 008°32'0 0.0
2018-Jul-17 00:53N 37°08' W 008°32'0 0.0
2018-Jul-17 00:27N 37°08' W 008°32'0 0.0
2018-Jul-16 23:30N 37°08' W 008°32'0 0.0
2018-Jul-16 23:00N 37°08' W 008°32'0 0.0
2018-Jul-16 22:30N 37°08' W 008°32'0 0.0
2018-Jul-16 22:00N 37°08' W 008°32'0 0.0
2018-Jul-16 21:29N 37°08' W 008°32'0 0.0
2018-Jul-16 20:59N 37°08' W 008°32'0 0.0
2018-Jul-16 20:29N 37°08' W 008°32'0 0.0
2018-Jul-16 20:00N 37°08' W 008°32'0 0.0
2018-Jul-16 19:28N 37°08' W 008°32'0 0.0
2018-Jul-16 19:00N 37°08' W 008°32'0 0.0
2018-Jul-16 18:30N 37°08' W 008°32'0 0.0
2018-Jul-16 18:00N 37°08' W 008°32'0 0.0
2018-Jul-16 17:30N 37°08' W 008°32'0 0.0
2018-Jul-16 17:00N 37°08' W 008°32'0 0.0
2018-Jul-16 16:30N 37°08' W 008°32'0 0.0
2018-Jul-16 16:00N 37°08' W 008°32'0 0.0
2018-Jul-16 15:30N 37°08' W 008°32'0 0.0
2018-Jul-16 15:00N 37°08' W 008°32'0 0.0
2018-Jul-16 14:30N 37°08' W 008°32'0 0.0
2018-Jul-16 14:00N 37°08' W 008°32'0 0.0
2018-Jul-16 13:29N 37°08' W 008°32'0 0.0
2018-Jul-16 13:00N 37°08' W 008°32'0 0.0
2018-Jul-16 12:30N 37°08' W 008°32'0 0.0
2018-Jul-16 12:00N 37°08' W 008°32'0 0.0
2018-Jul-16 11:30N 37°08' W 008°32'0 0.0
2018-Jul-16 10:59N 37°08' W 008°32'0 0.0
2018-Jul-16 10:31N 37°08' W 008°32'0 0.0
2018-Jul-16 10:00N 37°08' W 008°32'0 0.0
2018-Jul-16 09:30N 37°08' W 008°32'0 0.0
2018-Jul-16 09:00N 37°08' W 008°32'0 0.0
2018-Jul-16 08:30N 37°08' W 008°32'0 0.0
2018-Jul-16 08:00N 37°08' W 008°32'0 0.0
2018-Jul-16 07:30N 37°08' W 008°32'0 0.0
2018-Jul-16 07:00N 37°08' W 008°32'0 0.0
2018-Jul-16 06:30N 37°08' W 008°32'0 0.0
2018-Jul-16 05:59N 37°08' W 008°32'0 0.0
2018-Jul-16 05:30N 37°08' W 008°32'0 0.0
2018-Jul-16 05:00N 37°08' W 008°32'0 0.0
2018-Jul-16 04:30N 37°08' W 008°32'0 0.0
2018-Jul-16 04:00N 37°08' W 008°32'0 0.0
2018-Jul-16 03:30N 37°08' W 008°32'0 0.0
2018-Jul-16 03:00N 37°08' W 008°32'0 0.0
2018-Jul-16 02:30N 37°08' W 008°32'0 0.0
2018-Jul-16 02:00N 37°08' W 008°32'0 0.0
2018-Jul-16 01:30N 37°08' W 008°32'0 0.0
2018-Jul-16 01:00N 37°08' W 008°32'0 0.0
2018-Jul-16 00:30N 37°08' W 008°32'0 0.0
2018-Jul-16 00:00N 37°08' W 008°32'0 0.0
2018-Jul-15 23:30N 37°08' W 008°32'0 0.0
2018-Jul-15 22:59N 37°08' W 008°32'0 0.0
2018-Jul-15 22:30N 37°08' W 008°32'0 0.0
2018-Jul-15 22:00N 37°08' W 008°32'0 0.0
2018-Jul-15 21:30N 37°08' W 008°32'0 0.0
2018-Jul-15 21:00N 37°08' W 008°32'0 0.0
2018-Jul-15 20:30N 37°08' W 008°32'0 0.0
2018-Jul-15 20:00N 37°08' W 008°32'0 0.0
2018-Jul-15 19:29N 37°08' W 008°32'0 0.0
2018-Jul-15 19:00N 37°08' W 008°32'0 0.0
2018-Jul-15 18:30N 37°08' W 008°32'0 0.0
2018-Jul-15 18:00N 37°08' W 008°32'0 0.0
2018-Jul-15 17:30N 37°08' W 008°32'0 0.0
2018-Jul-15 17:00N 37°08' W 008°32'0 0.0
2018-Jul-15 16:29N 37°08' W 008°32'0 0.0
2018-Jul-15 16:00N 37°08' W 008°32'0 0.0
2018-Jul-15 15:30N 37°08' W 008°32'0 0.0
2018-Jul-15 15:00N 37°08' W 008°32'0 0.0
2018-Jul-15 14:30N 37°08' W 008°32'0 0.0
2018-Jul-15 14:00N 37°08' W 008°32'0 0.0
2018-Jul-15 13:30N 37°08' W 008°32'0 0.0
2018-Jul-15 13:00N 37°08' W 008°32'0 0.0
2018-Jul-15 12:30N 37°08' W 008°32'0 0.0
2018-Jul-15 12:00N 37°08' W 008°32'0 0.0
2018-Jul-15 11:30N 37°08' W 008°32'0 0.0
2018-Jul-15 11:00N 37°08' W 008°32'0 0.0
2018-Jul-15 10:30N 37°08' W 008°32'0 0.0
2018-Jul-15 10:00N 37°08' W 008°32'0 0.0
2018-Jul-15 09:30N 37°08' W 008°32'0 0.0
2018-Jul-15 09:00N 37°08' W 008°32'0 0.0
2018-Jul-15 08:30N 37°08' W 008°32'0 0.0
2018-Jul-15 08:00N 37°08' W 008°32'0 0.0
2018-Jul-15 07:29N 37°08' W 008°32'0 0.0
2018-Jul-15 07:00N 37°08' W 008°32'0 0.0
2018-Jul-15 06:30N 37°08' W 008°32'0 0.0
2018-Jul-15 06:00N 37°08' W 008°32'0 0.0
2018-Jul-15 05:30N 37°08' W 008°32'0 0.0
2018-Jul-15 05:00N 37°08' W 008°32'0 0.0
2018-Jul-15 04:30N 37°08' W 008°32'0 0.0
2018-Jul-15 04:00N 37°08' W 008°32'0 0.0
2018-Jul-15 03:30N 37°08' W 008°32'0 0.0
2018-Jul-15 03:00N 37°08' W 008°32'0 0.0
2018-Jul-15 02:30N 37°08' W 008°32'0 0.0
2018-Jul-15 02:00N 37°08' W 008°32'0 0.0
2018-Jul-15 01:30N 37°08' W 008°32'0 0.0
2018-Jul-15 01:00N 37°08' W 008°32'0 0.0
2018-Jul-15 00:30N 37°08' W 008°32'0 0.0
2018-Jul-15 00:00N 37°08' W 008°32'0 0.0
2018-Jul-14 23:30N 37°08' W 008°32'0 0.0
2018-Jul-14 23:00N 37°08' W 008°32'0 0.0
2018-Jul-14 22:30N 37°08' W 008°32'0 0.0
2018-Jul-14 22:00N 37°08' W 008°32'0 0.0
2018-Jul-14 21:30N 37°08' W 008°32'0 0.0
2018-Jul-14 21:00N 37°08' W 008°32'0 0.0
2018-Jul-14 20:30N 37°08' W 008°32'0 0.0
2018-Jul-14 20:00N 37°08' W 008°32'0 0.0
2018-Jul-14 19:30N 37°08' W 008°32'0 0.0
2018-Jul-14 19:00N 37°08' W 008°32'0 0.0
2018-Jul-14 18:30N 37°08' W 008°32'0 0.0
2018-Jul-14 18:00N 37°08' W 008°32'0 0.0
2018-Jul-14 17:30N 37°08' W 008°32'0 0.0
2018-Jul-14 17:00N 37°08' W 008°32'0 0.0
2018-Jul-14 16:30N 37°08' W 008°32'0 0.0
2018-Jul-14 16:00N 37°08' W 008°32'0 0.0
2018-Jul-14 15:30N 37°08' W 008°32'0 0.0
2018-Jul-14 15:00N 37°08' W 008°32'0 0.0
2018-Jul-14 14:30N 37°08' W 008°32'0 0.0
2018-Jul-14 13:29N 37°08' W 008°32'0 0.0
2018-Jul-14 13:00N 37°08' W 008°32'0 0.0
2018-Jul-14 12:30N 37°08' W 008°32'0 0.0
2018-Jul-14 11:59N 37°08' W 008°32'0 0.0
2018-Jul-14 11:30N 37°08' W 008°32'0 0.0
2018-Jul-14 11:00N 37°08' W 008°32'0 0.0
2018-Jul-14 10:30N 37°08' W 008°32'0 0.0
2018-Jul-14 10:00N 37°08' W 008°32'0 0.0
2018-Jul-14 09:30N 37°08' W 008°32'0 0.0
2018-Jul-14 09:00N 37°08' W 008°32'0 0.0
2018-Jul-14 08:30N 37°08' W 008°32'0 0.0
2018-Jul-14 08:00N 37°08' W 008°32'0 0.0
2018-Jul-14 07:30N 37°08' W 008°32'0 0.0
2018-Jul-14 07:00N 37°08' W 008°32'0 0.0
2018-Jul-14 06:30N 37°08' W 008°32'0 0.0
2018-Jul-14 06:00N 37°08' W 008°32'0 0.0
2018-Jul-14 05:30N 37°08' W 008°32'0 0.0
2018-Jul-14 05:00N 37°08' W 008°32'0 0.0
2018-Jul-14 04:30N 37°08' W 008°32'0 0.0
2018-Jul-14 04:00N 37°08' W 008°32'0 0.0
2018-Jul-14 03:30N 37°08' W 008°32'0 0.0
2018-Jul-14 03:00N 37°08' W 008°32'0 0.0
2018-Jul-14 02:30N 37°08' W 008°32'0 0.0
2018-Jul-14 02:00N 37°08' W 008°32'0 0.0
2018-Jul-14 01:30N 37°08' W 008°32'0 0.0
2018-Jul-14 01:00N 37°08' W 008°32'0 0.0
2018-Jul-14 00:29N 37°08' W 008°32'0 0.0
2018-Jul-14 00:00N 37°08' W 008°32'0 0.0
2018-Jul-13 23:30N 37°08' W 008°32'0 0.0
2018-Jul-13 22:59N 37°08' W 008°32'0 0.0
2018-Jul-13 22:30N 37°08' W 008°32'0 0.0
2018-Jul-13 22:00N 37°08' W 008°32'0 0.0
2018-Jul-13 21:30N 37°08' W 008°32'0 0.0
2018-Jul-13 21:00N 37°08' W 008°32'0 0.0
2018-Jul-13 20:30N 37°08' W 008°32'0 0.0
2018-Jul-13 20:00N 37°08' W 008°32'0 0.0
2018-Jul-13 19:30N 37°08' W 008°32'0 0.0
2018-Jul-13 19:00N 37°08' W 008°32'0 0.3
2018-Jul-13 18:30N 37°08' W 008°32'0 0.0
2018-Jul-13 18:00N 37°08' W 008°32'0 0.0
2018-Jul-13 17:30N 37°08' W 008°32'0 0.0
2018-Jul-13 17:00N 37°08' W 008°32'0 0.0
2018-Jul-13 16:30N 37°08' W 008°32'0 0.0
2018-Jul-13 16:00N 37°08' W 008°32'0 0.0
2018-Jul-13 15:30N 37°08' W 008°32'0 0.0
2018-Jul-13 15:00N 37°08' W 008°32'0 0.0
2018-Jul-13 14:00N 37°08' W 008°32'0 0.0
2018-Jul-13 13:30N 37°08' W 008°32'0 0.0
2018-Jul-13 13:00N 37°08' W 008°32'0 0.1
2018-Jul-13 12:30N 37°08' W 008°32'4 8.7
2018-Jul-13 12:00N 37°05' W 008°35'510.6
2018-Jul-13 11:30N 37°02' W 008°41'48 4.9
2018-Jul-13 01:42N 37°44' W 009°11'0 1.5
2018-Jul-13 01:30N 37°44' W 009°11'0 0.6
2018-Jul-13 01:00N 37°43' W 009°11'1 2.5
2018-Jul-13 00:30N 37°42' W 009°11'1 2.4
2018-Jul-13 00:00N 37°41' W 009°11'1 0.1
2018-Jul-12 14:45N 37°42' W 009°11'1 3.8
2018-Jul-12 14:30N 37°43' W 009°11'2 1.7
2018-Jul-12 13:04N 37°45' W 009°09'0 2.7
2018-Jul-12 12:58N 37°45' W 009°09'1 2.7
2018-Jul-12 12:30N 37°46' W 009°10'1 2.7
2018-Jul-12 11:58N 37°48' W 009°11'1 2.7
2018-Jul-12 11:24N 37°49' W 009°11'1 2.7
2018-Jul-12 10:58N 37°50' W 009°11'1 2.6
2018-Jul-12 10:30N 37°52' W 009°11'2 3.5
2018-Jul-12 10:00N 37°53' W 009°12'1 1.4
2018-Jul-12 09:30N 37°54' W 009°12'1 2.3
2018-Jul-12 09:00N 37°53' W 009°12'1 2.4
2018-Jul-12 08:30N 37°52' W 009°11'1 2.3
2018-Jul-12 08:00N 37°51' W 009°11'1 2.3
2018-Jul-12 07:30N 37°49' W 009°11'1 2.4
2018-Jul-12 07:00N 37°48' W 009°10'1 2.5
2018-Jul-12 06:30N 37°47' W 009°09'1 2.5
2018-Jul-12 06:00N 37°46' W 009°09'1 2.5
2018-Jul-12 05:30N 37°45' W 009°09'1 2.2
2018-Jul-12 05:00N 37°44' W 009°10'1 1.1
2018-Jul-12 04:05N 37°45' W 009°10'0 2.6
2018-Jul-12 04:00N 37°45' W 009°10'2 2.6
2018-Jul-12 03:22N 37°46' W 009°11'1 2.7
2018-Jul-12 03:00N 37°47' W 009°11'2 2.7
2018-Jul-12 02:18N 37°49' W 009°11'1 2.6
2018-Jul-12 01:54N 37°50' W 009°11'1 2.6
2018-Jul-12 01:31N 37°51' W 009°11'1 2.6
2018-Jul-12 01:00N 37°53' W 009°11'1 2.7
2018-Jul-12 00:30N 37°54' W 009°12'2 3.7
2018-Jul-12 00:00N 37°56' W 009°11'4 7.2
2018-Jul-11 23:30N 37°55' W 009°07'5 9.4
2018-Jul-11 23:01N 37°55' W 009°01'5 9.7
2018-Jul-11 22:30N 37°56' W 008°54'2 4.6
2018-Jul-11 22:00N 37°57' W 008°52'0 0.0
2018-Jul-11 21:30N 37°57' W 008°52'2 3.8
2018-Jul-11 21:00N 37°55' W 008°54'5 9.6
2018-Jul-11 20:31N 37°52' W 008°58'5 9.7
2018-Jul-11 20:00N 37°48' W 009°01'510.1
2018-Jul-11 19:30N 37°44' W 009°05'  

Dump ship's entire track history